首页
METAR-TAF:

METAR-TAF

机场 :

鳳凰城天港國際機場

鳳凰城, 亞利桑那州, 美国

纬度: 33-26-03N, 经度: 112-03-04W, 海拔: 345米

当前天气观测

该预报发布于55分钟前的00:51 UTC
风速9节,风向西
温度 28°C
湿度 17%
气压 1014 hPa
能見度: 16.1公里
少量云层高于25000英尺

METAR: KPHX 120051Z 28009KT 10SM FEW250 28/01 A2994 RMK AO2 SLP125 T02780011 $

时间: 18:46 (01:46 UTC)

预报

该预报发布于2小时和26分钟前的23:20 UTC
预报有效从12日的 00点(UTC)到 13日的 06点(UTC)
风速8节,风向西
能見度: 10公里
少量云层高于10000英尺
少量云层高于25000英尺
从 12日的 0500点(UTC)
风速6节,风向东转东北
能見度: 10公里
天空无云
从 12日的 1600点(UTC)
风速11节,风向,有时为19节阵风
能見度: 10公里
少量云层高于25000英尺
从 12日的 2100点(UTC)
风速7节,风向东转东南
能見度: 10公里
少量云层高于25000英尺

TAF: KPHX 112320Z 1200/1306 26008KT P6SM FEW100 FEW250 FM120500 07006KT P6SM SKC FM121600 09011G19KT P6SM FEW250 FM122100 11007KT P6SM FEW250

超过4000个机场的气象观测和天气预报(METAR&TAF报告)。

可查询的气象台以黄色和红色小点在地图上表示。

将鼠标移到小点上方,可查看气象台名称。

然后点击查看天气观测和预报。

如需切换地图:点击带黑十字的绿色按钮放大地图;点击带横线的绿色按钮缩小地图;或者点击绿色箭头查看邻近地区的地图。


METAR-TAF: